Time;durP1;ratioP1;P1;durP2;ratioP2;P2;SDS_P1;SDS_P2;PMS_P1;PMS_P2;Temp;Humidity;BMP_temperature;BMP_pressure;BME280_temperature;BME280_humidity;BME280_pressure;Samples;Min_cycle;Max_cycle;Signal;HPM_P1;HPM_P2
2020/12/13 00:00:01;;;;;;;87.53;43.60;;;1.10;99.90;;;;;;5081726;28;20206;-63
2020/12/13 00:02:27;;;;;;;86.57;46.47;;;1.20;99.90;;;;;;5079525;28;20478;-63
2020/12/13 00:04:54;;;;;;;109.40;46.47;;;1.00;99.90;;;;;;5080219;28;20273;-63
2020/12/13 00:07:21;;;;;;;86.88;43.38;;;1.00;99.90;;;;;;5079247;28;20254;-63
2020/12/13 00:09:47;;;;;;;73.35;47.47;;;1.00;99.90;;;;;;5079997;28;20266;-63
2020/12/13 00:12:14;;;;;;;76.93;45.03;;;1.10;99.90;;;;;;5087219;28;20273;-63
2020/12/13 00:14:40;;;;;;;76.00;43.33;;;1.10;99.90;;;;;;5080648;28;20321;-62
2020/12/13 00:17:07;;;;;;;66.38;42.20;;;1.20;99.90;;;;;;5082867;28;20209;-63
2020/12/13 00:19:34;;;;;;;86.72;46.60;;;1.10;99.90;;;;;;5082614;28;20249;-63
2020/12/13 00:22:00;;;;;;;83.50;43.55;;;1.00;99.90;;;;;;5080976;28;20241;-64
2020/12/13 00:24:28;;;;;;;80.28;45.78;;;1.00;99.90;;;;;;5083160;28;20207;-64
2020/12/13 00:26:54;;;;;;;76.90;43.58;;;1.00;99.90;;;;;;5081668;28;20203;-64
2020/12/13 00:29:21;;;;;;;92.47;43.75;;;1.00;99.90;;;;;;5080284;28;20678;-64
2020/12/13 00:31:50;;;;;;;80.15;43.05;;;1.10;99.90;;;;;;5084501;28;20227;-64
2020/12/13 00:34:17;;;;;;;88.40;43.15;;;1.10;99.90;;;;;;5079907;28;20269;-65
2020/12/13 00:36:44;;;;;;;77.00;41.13;;;1.50;99.90;;;;;;5081224;28;20797;-65
2020/12/13 00:39:10;;;;;;;83.57;39.45;;;1.00;99.90;;;;;;5083038;28;20415;-66
2020/12/13 00:41:38;;;;;;;81.15;39.95;;;1.00;99.90;;;;;;5080260;28;20234;-65
2020/12/13 00:44:04;;;;;;;85.68;46.28;;;1.00;99.90;;;;;;5079903;28;20203;-64
2020/12/13 00:46:31;;;;;;;77.20;44.33;;;1.10;99.90;;;;;;5080511;28;20217;-64
2020/12/13 00:48:57;;;;;;;83.25;42.60;;;0.90;99.90;;;;;;5081437;28;20241;-64
2020/12/13 00:51:25;;;;;;;93.65;48.17;;;0.90;99.90;;;;;;5081626;28;20202;-64
2020/12/13 00:53:52;;;;;;;75.93;42.60;;;1.10;99.90;;;;;;5082634;28;20214;-65
2020/12/13 00:56:19;;;;;;;87.35;44.28;;;0.90;99.90;;;;;;5080858;28;20202;-65
2020/12/13 00:58:46;;;;;;;79.47;42.78;;;1.00;99.90;;;;;;5081778;28;20215;-63
2020/12/13 01:01:14;;;;;;;80.70;42.17;;;1.40;99.90;;;;;;5078874;28;20221;-64
2020/12/13 01:03:40;;;;;;;90.00;44.03;;;0.90;99.90;;;;;;5079441;28;20241;-65
2020/12/13 01:06:07;;;;;;;96.90;47.35;;;1.20;99.90;;;;;;5081550;28;20195;-64
2020/12/13 01:08:34;;;;;;;91.45;45.85;;;0.90;99.90;;;;;;5080476;28;20235;-64
2020/12/13 01:11:00;;;;;;;83.15;44.72;;;0.80;99.90;;;;;;5082467;28;20230;-65
2020/12/13 01:13:27;;;;;;;99.53;50.83;;;1.30;99.90;;;;;;5083746;28;20509;-65
2020/12/13 01:15:58;;;;;;;73.95;43.80;;;0.90;99.90;;;;;;5078585;28;20238;-65
2020/12/13 01:18:25;;;;;;;78.25;42.13;;;0.90;99.90;;;;;;5080503;28;20210;-64
2020/12/13 01:20:52;;;;;;;97.70;44.55;;;1.80;99.90;;;;;;5080524;28;20785;-64
2020/12/13 01:23:19;;;;;;;79.85;45.20;;;0.80;99.90;;;;;;5080986;28;20643;-63
2020/12/13 01:25:45;;;;;;;91.57;45.08;;;0.90;99.90;;;;;;5081437;28;20203;-64
2020/12/13 01:28:12;;;;;;;96.28;42.35;;;0.90;99.90;;;;;;5078348;28;20222;-65
2020/12/13 01:30:39;;;;;;;86.30;46.47;;;0.80;99.90;;;;;;5089346;28;20210;-65
2020/12/13 01:33:05;;;;;;;96.20;47.42;;;0.90;99.90;;;;;;5083873;28;20203;-65
2020/12/13 01:35:32;;;;;;;83.20;43.35;;;0.90;99.90;;;;;;5090730;28;20199;-64
2020/12/13 01:37:58;;;;;;;84.78;42.78;;;0.80;99.90;;;;;;5087401;28;20213;-64
2020/12/13 01:40:25;;;;;;;78.13;40.45;;;0.70;99.90;;;;;;5091687;28;20203;-64
2020/12/13 01:42:52;;;;;;;76.47;40.78;;;0.60;99.90;;;;;;5091395;28;20212;-64
2020/12/13 01:45:20;;;;;;;72.57;39.63;;;0.50;99.90;;;;;;5088669;28;20710;-64
2020/12/13 01:47:50;;;;;;;85.63;42.85;;;0.40;99.90;;;;;;5089833;28;20237;-63
2020/12/13 01:53:15;;;;;;;92.63;42.83;;;0.20;99.90;;;;;;5082473;28;20536;-65
2020/12/13 01:55:44;;;;;;;81.05;42.88;;;0.30;99.90;;;;;;5083883;28;20204;-65
2020/12/13 01:58:23;;;;;;;87.47;41.55;;;0.20;99.90;;;;;;5085322;28;20210;-64
2020/12/13 02:00:53;;;;;;;87.25;41.75;;;0.10;99.90;;;;;;5080455;28;20228;-65
2020/12/13 02:03:28;;;;;;;72.38;44.00;;;0.10;99.90;;;;;;5079590;28;20217;-65
2020/12/13 02:06:02;;;;;;;75.22;41.15;;;0.10;99.90;;;;;;5080853;28;20252;-65
2020/12/13 02:08:37;;;;;;;82.45;41.88;;;0.00;99.90;;;;;;5085367;28;20221;-70
2020/12/13 02:11:04;;;;;;;81.15;46.20;;;0.10;99.90;;;;;;5081590;28;20202;-64
2020/12/13 02:13:31;;;;;;;74.97;43.90;;;0.00;99.90;;;;;;5083119;28;20203;-65
2020/12/13 02:15:59;;;;;;;83.78;40.85;;;-0.10;99.90;;;;;;5082577;28;20225;-64
2020/12/13 02:18:29;;;;;;;81.72;43.38;;;-0.20;99.90;;;;;;5078468;28;20239;-65
2020/12/13 02:20:56;;;;;;;92.78;49.45;;;-0.20;99.90;;;;;;5078865;28;20202;-65
2020/12/13 02:23:23;;;;;;;71.05;44.00;;;-0.10;99.90;;;;;;5081243;28;20390;-64
2020/12/13 02:25:51;;;;;;;72.10;41.28;;;-0.10;99.90;;;;;;5080475;28;20207;-64
2020/12/13 02:28:18;;;;;;;85.30;42.08;;;-0.10;99.90;;;;;;5081092;28;20227;-64
2020/12/13 02:30:45;;;;;;;87.35;46.30;;;-0.10;99.90;;;;;;5081709;28;20277;-65
2020/12/13 02:33:11;;;;;;;86.60;46.10;;;0.00;99.90;;;;;;5080132;28;20210;-65
2020/12/13 02:35:38;;;;;;;80.28;45.58;;;0.00;99.90;;;;;;5086588;28;20262;-65
2020/12/13 02:38:05;;;;;;;88.13;44.65;;;0.00;99.90;;;;;;5082714;28;20227;-65
2020/12/13 02:40:31;;;;;;;94.57;46.53;;;0.50;99.90;;;;;;5081070;28;20210;-64
2020/12/13 02:42:58;;;;;;;97.00;47.65;;;-0.20;99.90;;;;;;5081841;28;20209;-64
2020/12/13 02:45:25;;;;;;;76.88;46.67;;;-0.20;99.90;;;;;;5081997;28;20514;-65
2020/12/13 02:47:51;;;;;;;79.00;44.90;;;-0.20;99.90;;;;;;5080703;28;20241;-65
2020/12/13 02:50:18;;;;;;;92.47;42.88;;;-0.20;99.90;;;;;;5078179;28;20294;-65
2020/12/13 02:52:45;;;;;;;68.60;37.10;;;-0.10;99.90;;;;;;5079639;28;20397;-63
2020/12/13 02:55:11;;;;;;;92.32;43.20;;;-0.20;99.90;;;;;;5082407;28;20206;-64
2020/12/13 02:57:40;;;;;;;91.57;42.25;;;-0.20;99.90;;;;;;5077516;28;20207;-65
2020/12/13 03:00:08;;;;;;;92.22;46.60;;;-0.30;99.90;;;;;;5085325;28;20249;-64
2020/12/13 03:02:35;;;;;;;88.25;44.25;;;-0.30;99.90;;;;;;5081761;28;20218;-64
2020/12/13 03:05:02;;;;;;;90.47;45.45;;;-0.20;99.90;;;;;;5080832;28;20207;-62
2020/12/13 03:07:28;;;;;;;82.65;44.58;;;-0.40;99.90;;;;;;5080754;28;20202;-63
2020/12/13 03:09:55;;;;;;;82.68;47.03;;;-0.40;99.90;;;;;;5080272;28;20210;-65
2020/12/13 03:12:21;;;;;;;94.40;49.42;;;-0.30;99.90;;;;;;5080325;28;20206;-65
2020/12/13 03:14:48;;;;;;;92.95;46.50;;;-0.30;99.90;;;;;;5080995;28;20210;-65
2020/12/13 03:17:14;;;;;;;110.88;51.22;;;-0.30;99.90;;;;;;5079367;28;20210;-65
2020/12/13 03:19:41;;;;;;;100.47;53.38;;;-0.30;99.90;;;;;;5080461;28;20238;-65
2020/12/13 03:22:08;;;;;;;85.50;45.33;;;-0.30;99.90;;;;;;5084073;28;20225;-65
2020/12/13 03:24:34;;;;;;;101.32;47.20;;;-0.20;99.90;;;;;;5085881;28;20211;-64
2020/12/13 03:27:01;;;;;;;101.25;47.63;;;-0.30;99.90;;;;;;5080483;28;20524;-64
2020/12/13 03:29:27;;;;;;;90.13;46.30;;;-0.40;99.90;;;;;;5080363;28;20233;-65
2020/12/13 03:31:55;;;;;;;100.68;46.30;;;-0.40;99.90;;;;;;5082225;28;20245;-64
2020/12/13 03:34:22;;;;;;;93.72;44.15;;;-0.30;99.90;;;;;;5084548;28;20202;-64
2020/12/13 03:36:49;;;;;;;89.97;46.67;;;-0.40;99.90;;;;;;5077991;28;20388;-64
2020/12/13 03:39:15;;;;;;;100.10;47.58;;;-0.50;99.90;;;;;;5078201;28;20211;-65
2020/12/13 03:41:42;;;;;;;87.13;42.45;;;-0.50;99.90;;;;;;5078360;28;20230;-64
2020/12/13 03:44:12;;;;;;;87.93;43.85;;;0.30;99.90;;;;;;5077702;28;20275;-64
2020/12/13 03:46:42;;;;;;;90.88;47.88;;;-0.40;99.90;;;;;;5077520;28;20199;-65
2020/12/13 03:49:09;;;;;;;108.40;51.20;;;0.00;99.90;;;;;;5086969;28;20226;-65
2020/12/13 03:51:35;;;;;;;107.05;45.30;;;-0.30;99.90;;;;;;5079032;28;20195;-64
2020/12/13 03:54:02;;;;;;;98.95;43.90;;;-0.30;99.90;;;;;;5079964;28;20569;-65
2020/12/13 03:56:28;;;;;;;81.70;44.72;;;-0.20;99.90;;;;;;5077753;28;20270;-64
2020/12/13 03:58:55;;;;;;;103.60;53.72;;;-0.30;99.90;;;;;;5082646;28;20214;-64
2020/12/13 04:01:21;;;;;;;98.22;49.50;;;-0.30;99.90;;;;;;5079656;28;20505;-64
2020/12/13 04:03:48;;;;;;;122.57;54.72;;;0.20;99.90;;;;;;5083549;28;20214;-64
2020/12/13 04:06:15;;;;;;;94.45;44.45;;;-0.40;99.90;;;;;;5082196;28;20223;-65
2020/12/13 04:08:41;;;;;;;93.38;49.53;;;-0.40;99.90;;;;;;5081432;28;20253;-64
2020/12/13 04:11:08;;;;;;;94.20;45.92;;;-0.50;99.90;;;;;;5083744;28;20206;-65
2020/12/13 04:13:35;;;;;;;93.88;48.13;;;0.10;99.90;;;;;;5080761;28;20206;-64
2020/12/13 04:16:02;;;;;;;108.53;50.70;;;0.10;99.90;;;;;;5082614;28;20201;-64
2020/12/13 04:18:28;;;;;;;104.18;47.97;;;-0.60;99.90;;;;;;5080672;28;20242;-64
2020/12/13 04:20:55;;;;;;;93.82;42.75;;;-0.50;99.90;;;;;;5084835;28;20203;-64
2020/12/13 04:23:21;;;;;;;78.90;43.17;;;-0.30;99.90;;;;;;5080766;28;20270;-64
2020/12/13 04:25:48;;;;;;;99.72;50.33;;;-0.10;99.90;;;;;;5086120;28;20435;-61
2020/12/13 04:28:15;;;;;;;108.35;46.75;;;-0.20;99.90;;;;;;5080682;28;20214;-62
2020/12/13 04:30:42;;;;;;;101.38;48.58;;;-0.10;99.90;;;;;;5086268;28;20203;-63
2020/12/13 04:33:10;;;;;;;114.35;47.53;;;0.50;99.90;;;;;;5087007;28;20397;-62
2020/12/13 04:35:38;;;;;;;95.18;42.17;;;0.20;99.90;;;;;;5085091;28;20202;-63
2020/12/13 04:38:05;;;;;;;85.50;43.00;;;0.20;99.90;;;;;;5081289;28;20314;-63
2020/12/13 04:40:34;;;;;;;97.82;50.38;;;0.30;99.90;;;;;;5083976;28;20504;-63
2020/12/13 04:43:01;;;;;;;99.57;45.60;;;0.30;99.90;;;;;;5085647;28;20202;-63
2020/12/13 04:45:29;;;;;;;85.25;43.28;;;0.40;99.90;;;;;;5085678;28;20203;-62
2020/12/13 04:48:03;;;;;;;76.70;39.60;;;0.40;99.90;;;;;;5083245;28;20528;-63
2020/12/13 04:50:32;;;;;;;77.93;39.95;;;0.50;99.90;;;;;;5086993;28;20201;-64
2020/12/13 04:53:02;;;;;;;99.55;44.30;;;1.00;99.90;;;;;;5081189;28;20778;-64
2020/12/13 04:55:29;;;;;;;84.13;40.72;;;0.50;99.90;;;;;;5083778;28;20209;-64
2020/12/13 04:57:57;;;;;;;99.85;41.92;;;0.50;99.90;;;;;;5080701;28;20207;-63
2020/12/13 05:00:26;;;;;;;84.80;42.55;;;0.50;99.90;;;;;;5082589;28;20229;-63
2020/12/13 05:02:53;;;;;;;98.85;47.08;;;0.60;99.90;;;;;;5082459;28;20214;-63
2020/12/13 05:05:21;;;;;;;89.47;45.05;;;0.60;99.90;;;;;;5081231;28;20202;-63
2020/12/13 05:07:48;;;;;;;72.57;41.88;;;1.30;99.90;;;;;;5080708;28;20637;-63
2020/12/13 05:10:14;;;;;;;98.38;47.25;;;0.70;99.90;;;;;;5080048;28;20203;-64
2020/12/13 05:12:41;;;;;;;105.55;49.50;;;0.90;99.90;;;;;;5081785;28;20203;-63
2020/12/13 05:15:07;;;;;;;84.57;44.50;;;0.90;99.90;;;;;;5079239;28;20258;-62
2020/12/13 05:17:35;;;;;;;78.82;40.33;;;1.40;99.90;;;;;;5079662;28;20206;-64
2020/12/13 05:20:02;;;;;;;101.30;44.80;;;0.80;99.90;;;;;;5081934;28;20242;-64
2020/12/13 05:22:37;;;;;;;85.60;45.22;;;1.40;99.90;;;;;;5083514;28;20209;-63
2020/12/13 05:25:10;;;;;;;95.78;42.20;;;0.70;99.90;;;;;;5084501;28;20209;-63
2020/12/13 05:27:40;;;;;;;87.22;44.92;;;1.30;99.90;;;;;;5088198;28;20210;-64
2020/12/13 05:30:08;;;;;;;78.05;40.53;;;0.70;99.90;;;;;;5082424;28;20260;-64
2020/12/13 05:32:35;;;;;;;87.90;39.45;;;0.70;99.90;;;;;;5084838;28;20246;-64
2020/12/13 05:35:03;;;;;;;64.80;36.70;;;0.70;99.90;;;;;;5082289;28;20397;-64
2020/12/13 05:37:30;;;;;;;91.65;38.58;;;0.80;99.90;;;;;;5084743;28;20206;-63
2020/12/13 05:39:56;;;;;;;71.88;35.88;;;0.80;99.90;;;;;;5084954;28;20217;-64
2020/12/13 05:42:34;;;;;;;73.95;40.10;;;0.80;99.90;;;;;;5080888;28;20203;-64
2020/12/13 05:51:18;;;;;;;81.20;42.83;;;0.80;99.90;;;;;;5082633;28;20209;-63
2020/12/13 05:53:29;;;;;;;77.57;39.95;;;0.70;99.90;;;;;;5082574;28;20203;-64
2020/12/13 05:55:57;;;;;;;80.40;43.03;;;0.80;99.90;;;;;;5081716;28;20210;-64
2020/12/13 05:58:25;;;;;;;92.47;42.78;;;0.90;99.90;;;;;;5081035;28;20206;-64
2020/12/13 06:00:54;;;;;;;81.60;35.42;;;0.80;99.90;;;;;;5081595;28;20211;-64
2020/12/13 06:03:34;;;;;;;80.63;42.40;;;0.80;99.90;;;;;;5078921;28;20199;-64
2020/12/13 06:06:08;;;;;;;85.45;42.45;;;0.80;99.90;;;;;;5081363;28;20282;-63
2020/12/13 06:09:07;;;;;;;71.82;39.95;;;0.90;99.90;;;;;;5080008;28;20214;-66
2020/12/13 06:11:43;;;;;;;87.47;38.75;;;0.90;99.90;;;;;;5084946;28;20202;-64
2020/12/13 06:14:17;;;;;;;73.18;37.50;;;0.90;99.90;;;;;;5079051;28;20209;-63
2020/12/13 06:16:45;;;;;;;82.43;42.78;;;1.00;99.90;;;;;;5086214;28;20215;-63
2020/12/13 06:19:14;;;;;;;79.70;40.97;;;1.00;99.90;;;;;;5080272;28;20301;-63
2020/12/13 06:21:43;;;;;;;96.60;42.88;;;0.90;99.90;;;;;;5083039;28;20206;-63
2020/12/13 06:24:09;;;;;;;77.75;35.33;;;0.90;99.90;;;;;;5080329;28;20195;-63
2020/12/13 06:26:37;;;;;;;65.57;37.55;;;0.80;99.90;;;;;;5078842;28;20507;-63
2020/12/13 06:29:05;;;;;;;68.70;37.10;;;0.80;99.90;;;;;;5081225;28;20222;-64
2020/12/13 06:31:37;;;;;;;62.35;34.30;;;0.90;99.90;;;;;;5083907;28;20215;-63
2020/12/13 06:34:05;;;;;;;84.50;40.15;;;0.90;99.90;;;;;;5084105;28;20202;-65
2020/12/13 06:36:34;;;;;;;78.30;41.30;;;0.80;99.90;;;;;;5081016;28;20203;-64
2020/12/13 06:39:05;;;;;;;64.53;35.97;;;0.90;99.90;;;;;;5084221;28;20207;-64
2020/12/13 06:41:34;;;;;;;88.13;34.92;;;0.90;99.90;;;;;;5078453;28;20203;-64
2020/12/13 06:44:06;;;;;;;89.00;37.97;;;0.90;99.90;;;;;;5084127;28;20203;-63
2020/12/13 06:46:41;;;;;;;68.57;37.08;;;0.90;99.90;;;;;;5084159;28;20203;-64
2020/12/13 06:49:09;;;;;;;69.53;36.38;;;0.90;99.90;;;;;;5082545;28;20234;-63
2020/12/13 06:51:38;;;;;;;67.05;34.42;;;0.80;99.90;;;;;;5079444;28;20558;-64
2020/12/13 06:54:16;;;;;;;88.57;45.05;;;0.90;99.90;;;;;;5081797;28;20493;-64
2020/12/13 06:56:45;;;;;;;78.45;39.33;;;1.20;99.90;;;;;;5081264;28;20217;-63
2020/12/13 06:59:12;;;;;;;75.53;39.67;;;1.00;99.90;;;;;;5083763;28;20266;-62
2020/12/13 07:01:43;;;;;;;79.03;40.40;;;1.00;99.90;;;;;;5083029;28;20202;-64
2020/12/13 07:04:36;;;;;;;62.90;35.60;;;1.10;99.90;;;;;;5080001;28;20203;-63
2020/12/13 07:07:19;;;;;;;69.53;36.85;;;1.10;99.90;;;;;;5085507;28;20487;-63
2020/12/13 07:09:48;;;;;;;74.00;36.95;;;1.10;99.90;;;;;;5082558;28;20301;-62
2020/12/13 07:12:16;;;;;;;74.80;35.70;;;1.10;99.90;;;;;;5083529;28;20206;-66
2020/12/13 07:14:44;;;;;;;78.35;38.58;;;1.10;99.90;;;;;;5081721;28;20207;-63
2020/12/13 07:17:18;;;;;;;69.80;35.58;;;1.20;99.90;;;;;;5078883;28;20213;-63
2020/12/13 07:19:47;;;;;;;83.50;37.78;;;1.00;99.90;;;;;;5080321;28;20243;-63
2020/12/13 07:22:15;;;;;;;65.72;35.42;;;1.00;99.90;;;;;;5079351;28;20207;-62
2020/12/13 07:24:42;;;;;;;106.10;39.92;;;1.20;99.90;;;;;;5082638;28;20245;-63
2020/12/13 07:27:10;;;;;;;72.32;38.40;;;1.20;99.90;;;;;;5078264;28;20273;-63
2020/12/13 07:29:37;;;;;;;62.53;32.92;;;1.20;99.90;;;;;;5079872;28;20227;-62
2020/12/13 07:32:05;;;;;;;77.15;37.95;;;1.80;99.90;;;;;;5078881;28;20290;-63
2020/12/13 07:34:32;;;;;;;76.32;35.38;;;1.30;99.90;;;;;;5081321;28;20207;-63
2020/12/13 07:36:59;;;;;;;77.60;37.92;;;1.30;99.90;;;;;;5077584;28;20213;-63
2020/12/13 07:39:29;;;;;;;69.50;38.30;;;1.30;99.90;;;;;;5086293;28;20210;-63
2020/12/13 07:41:57;;;;;;;83.10;35.83;;;1.30;99.90;;;;;;5083935;28;20206;-63
2020/12/13 07:44:25;;;;;;;77.82;36.05;;;1.40;99.90;;;;;;5090424;28;20257;-64
2020/12/13 07:46:52;;;;;;;66.57;38.40;;;1.40;99.90;;;;;;5085950;28;20210;-64
2020/12/13 07:49:20;;;;;;;77.00;40.00;;;1.10;99.90;;;;;;5084379;28;20226;-64
2020/12/13 07:51:49;;;;;;;75.80;40.58;;;1.50;99.90;;;;;;5083453;28;20203;-63
2020/12/13 07:54:27;;;;;;;57.05;35.08;;;1.40;99.90;;;;;;5081297;28;20203;-64
2020/12/13 07:56:55;;;;;;;69.88;36.25;;;1.50;99.90;;;;;;5087073;28;20206;-63
2020/12/13 07:59:26;;;;;;;75.80;37.88;;;1.50;99.90;;;;;;5080563;28;20209;-63
2020/12/13 08:01:55;;;;;;;84.60;35.78;;;1.50;99.90;;;;;;5084998;28;20212;-63
2020/12/13 08:04:39;;;;;;;74.57;37.60;;;1.50;99.90;;;;;;5085468;28;20203;-63
2020/12/13 08:07:13;;;;;;;75.65;33.72;;;1.60;99.90;;;;;;5083568;28;20199;-64
2020/12/13 08:09:42;;;;;;;69.43;36.58;;;1.60;99.90;;;;;;5083317;28;20298;-63
2020/12/13 08:12:10;;;;;;;69.20;34.35;;;1.60;99.90;;;;;;5081394;28;20207;-63
2020/12/13 08:14:37;;;;;;;84.50;38.50;;;1.90;99.90;;;;;;5083064;28;20203;-63
2020/12/13 08:17:04;;;;;;;63.88;40.75;;;1.60;99.90;;;;;;5080797;28;20234;-63
2020/12/13 08:19:39;;;;;;;79.50;36.15;;;1.60;99.90;;;;;;5081104;28;20652;-63
2020/12/13 08:22:07;;;;;;;61.50;38.67;;;1.70;99.90;;;;;;5081507;28;20202;-63
2020/12/13 08:24:34;;;;;;;66.18;32.17;;;1.60;99.90;;;;;;5080811;28;20203;-63
2020/12/13 08:27:02;;;;;;;75.75;39.33;;;1.60;99.90;;;;;;5082368;28;20598;-65
2020/12/13 08:29:31;;;;;;;74.55;35.08;;;1.90;99.90;;;;;;5083288;28;20238;-63
2020/12/13 08:32:00;;;;;;;89.15;38.00;;;1.80;99.90;;;;;;5084314;28;20508;-63
2020/12/13 08:34:30;;;;;;;84.20;40.53;;;1.70;99.90;;;;;;5080781;28;20234;-63
2020/12/13 08:36:58;;;;;;;76.65;40.58;;;1.70;99.90;;;;;;5086464;28;20210;-62
2020/12/13 08:39:31;;;;;;;77.03;33.67;;;2.30;99.90;;;;;;5087904;28;20400;-64
2020/12/13 08:41:59;;;;;;;71.82;35.63;;;1.70;99.90;;;;;;5080930;28;20229;-63
2020/12/13 08:44:36;;;;;;;76.63;36.70;;;1.80;99.90;;;;;;5082736;28;20210;-63
2020/12/13 08:47:08;;;;;;;72.05;40.20;;;1.80;99.90;;;;;;5083602;28;20212;-63
2020/12/13 08:49:37;;;;;;;70.28;38.83;;;1.80;99.90;;;;;;5090631;28;20223;-62
2020/12/13 08:52:18;;;;;;;69.57;36.45;;;1.80;99.90;;;;;;5086776;28;20204;-63
2020/12/13 08:55:00;;;;;;;66.78;36.55;;;1.70;99.90;;;;;;5087641;28;20416;-64
2020/12/13 08:57:34;;;;;;;66.40;35.08;;;1.70;99.90;;;;;;5085076;28;20229;-63
2020/12/13 09:00:01;;;;;;;63.75;34.80;;;1.90;99.90;;;;;;5086057;28;20216;-64
2020/12/13 09:02:55;;;;;;;72.47;34.72;;;1.90;99.90;;;;;;5083578;28;20557;-63
2020/12/13 09:05:27;;;;;;;85.63;41.38;;;2.10;99.90;;;;;;5084069;28;20205;-63
2020/12/13 09:07:56;;;;;;;75.93;41.28;;;2.00;99.90;;;;;;5081397;28;20213;-64
2020/12/13 09:10:24;;;;;;;66.82;35.78;;;2.10;99.90;;;;;;5081983;28;20249;-63
2020/12/13 09:12:52;;;;;;;80.00;36.67;;;2.10;99.90;;;;;;5082120;28;20243;-64
2020/12/13 09:15:22;;;;;;;74.30;40.15;;;2.10;99.90;;;;;;5090876;28;20202;-63
2020/12/13 09:17:56;;;;;;;82.25;41.88;;;2.10;99.90;;;;;;5096900;28;20205;-64
2020/12/13 09:20:32;;;;;;;65.30;36.22;;;2.10;99.90;;;;;;5090826;28;20241;-63
2020/12/13 09:23:10;;;;;;;72.35;36.03;;;2.10;99.90;;;;;;5094098;28;20194;-63
2020/12/13 09:25:39;;;;;;;64.20;36.60;;;2.10;99.90;;;;;;5096644;28;20207;-63
2020/12/13 09:28:07;;;;;;;79.18;39.88;;;2.30;99.90;;;;;;5094441;28;20201;-64
2020/12/13 09:30:34;;;;;;;63.83;32.72;;;2.20;99.90;;;;;;5091536;28;20208;-63
2020/12/13 09:33:02;;;;;;;58.92;34.85;;;2.20;99.90;;;;;;5088035;28;20250;-64
2020/12/13 09:35:30;;;;;;;69.47;33.78;;;2.30;99.90;;;;;;5090869;28;20274;-63
2020/12/13 09:38:04;;;;;;;69.82;35.13;;;2.40;99.90;;;;;;5096007;28;20207;-63
2020/12/13 09:40:32;;;;;;;55.97;30.67;;;2.30;99.90;;;;;;5087315;28;20207;-63
2020/12/13 09:42:59;;;;;;;56.42;29.50;;;2.30;99.90;;;;;;5089783;28;20207;-64
2020/12/13 09:45:27;;;;;;;63.42;34.08;;;2.30;99.90;;;;;;5092108;28;20218;-62
2020/12/13 09:47:58;;;;;;;72.03;35.95;;;2.50;99.90;;;;;;5089053;28;20207;-64
2020/12/13 09:50:27;;;;;;;75.63;35.90;;;2.50;99.90;;;;;;5095739;28;20424;-63
2020/12/13 09:52:54;;;;;;;60.55;34.22;;;2.50;99.90;;;;;;5083112;28;20239;-62
2020/12/13 09:55:21;;;;;;;62.90;33.85;;;2.40;99.90;;;;;;5079593;28;20400;-62
2020/12/13 09:57:48;;;;;;;85.68;33.88;;;2.50;99.90;;;;;;5083298;28;20214;-64
2020/12/13 10:00:15;;;;;;;72.68;40.95;;;2.50;99.90;;;;;;5091184;28;20215;-63
2020/12/13 10:02:43;;;;;;;74.28;36.00;;;2.50;99.90;;;;;;5085655;28;20397;-63
2020/12/13 10:05:21;;;;;;;81.82;38.05;;;2.70;99.90;;;;;;5080821;28;20271;-62
2020/12/13 10:10:15;;;;;;;66.40;40.00;;;3.00;99.90;;;;;;5090383;28;20565;-64
2020/12/13 10:12:42;;;;;;;81.55;38.63;;;2.90;99.90;;;;;;5092220;28;20203;-63
2020/12/13 10:15:10;;;;;;;76.00;38.45;;;3.30;99.90;;;;;;5092037;28;20209;-63
2020/12/13 10:17:41;;;;;;;76.47;34.80;;;3.20;99.90;;;;;;5083588;28;20426;-63
2020/12/13 10:20:07;;;;;;;70.82;33.40;;;3.20;99.90;;;;;;5089755;28;20251;-64
2020/12/13 10:22:35;;;;;;;69.63;32.05;;;3.20;99.90;;;;;;5084186;28;20273;-64
2020/12/13 10:25:03;;;;;;;94.75;40.67;;;3.30;99.90;;;;;;5093425;28;20252;-63
2020/12/13 10:27:29;;;;;;;77.82;40.08;;;3.20;99.90;;;;;;5083172;28;20205;-64
2020/12/13 10:29:56;;;;;;;69.70;34.35;;;3.20;99.90;;;;;;5087961;28;20278;-64
2020/12/13 10:32:23;;;;;;;67.22;33.15;;;3.20;99.90;;;;;;5083850;28;20531;-63
2020/12/13 10:34:51;;;;;;;73.28;36.35;;;2.90;99.90;;;;;;5096204;28;20241;-63
2020/12/13 10:37:18;;;;;;;64.22;34.70;;;3.20;99.90;;;;;;5091891;28;20208;-63
2020/12/13 10:39:45;;;;;;;74.15;40.22;;;3.20;99.90;;;;;;5092731;28;20296;-63
2020/12/13 10:42:11;;;;;;;62.13;33.00;;;3.40;99.90;;;;;;5087644;28;20216;-63
2020/12/13 10:44:38;;;;;;;75.53;36.22;;;3.40;99.90;;;;;;5086645;28;20208;-64
2020/12/13 10:47:05;;;;;;;63.03;35.45;;;3.20;99.90;;;;;;5087264;28;20207;-64
2020/12/13 10:49:32;;;;;;;67.40;34.72;;;3.30;99.90;;;;;;5079441;28;20462;-63
2020/12/13 10:52:00;;;;;;;82.18;37.13;;;3.40;99.90;;;;;;5080760;28;20229;-63
2020/12/13 10:54:29;;;;;;;70.60;32.92;;;3.50;99.90;;;;;;5083593;28;20202;-64
2020/12/13 10:56:56;;;;;;;66.63;33.58;;;3.50;99.90;;;;;;5079132;28;20396;-64
2020/12/13 10:59:24;;;;;;;80.45;35.97;;;3.30;99.90;;;;;;5083556;28;20217;-63
2020/12/13 11:01:51;;;;;;;71.03;32.28;;;3.40;99.90;;;;;;5078942;28;20240;-64
2020/12/13 11:04:18;;;;;;;59.92;32.92;;;3.30;99.90;;;;;;5084978;28;20196;-65
2020/12/13 11:06:47;;;;;;;77.88;34.45;;;3.40;99.90;;;;;;5082256;28;20206;-66
2020/12/13 11:09:14;;;;;;;61.25;33.35;;;3.40;99.90;;;;;;5078640;28;20237;-64
2020/12/13 11:11:40;;;;;;;62.00;31.63;;;3.50;99.90;;;;;;5080243;28;20324;-65
2020/12/13 11:14:08;;;;;;;67.68;33.92;;;3.50;99.90;;;;;;5080100;28;20205;-65
2020/12/13 11:16:36;;;;;;;64.93;34.60;;;3.50;99.90;;;;;;5080923;28;20217;-63
2020/12/13 11:19:05;;;;;;;58.58;32.03;;;3.50;99.90;;;;;;5091371;28;20241;-65
2020/12/13 11:21:33;;;;;;;52.00;27.15;;;3.50;99.90;;;;;;5085235;28;20214;-65
2020/12/13 11:24:02;;;;;;;57.78;32.58;;;3.60;99.90;;;;;;5086527;28;20248;-64
2020/12/13 11:26:31;;;;;;;59.17;30.10;;;3.50;99.90;;;;;;5083099;28;20197;-65
2020/12/13 11:28:57;;;;;;;53.05;29.00;;;3.50;99.90;;;;;;5083840;28;20237;-64
2020/12/13 11:31:26;;;;;;;54.63;28.60;;;4.30;99.90;;;;;;5079647;28;20221;-65
2020/12/13 11:33:53;;;;;;;51.63;28.77;;;3.80;99.90;;;;;;5082006;28;20194;-64
2020/12/13 11:36:20;;;;;;;55.40;28.77;;;4.00;99.90;;;;;;5091694;28;20279;-66
2020/12/13 11:38:51;;;;;;;57.95;30.02;;;3.70;99.90;;;;;;5088794;28;20247;-65
2020/12/13 11:41:26;;;;;;;55.95;32.42;;;3.70;99.90;;;;;;5087018;28;20206;-65
2020/12/13 11:43:53;;;;;;;45.05;27.48;;;3.70;99.90;;;;;;5098006;28;20210;-65
2020/12/13 11:46:23;;;;;;;61.10;29.92;;;3.70;99.90;;;;;;5089782;28;20209;-66
2020/12/13 11:48:50;;;;;;;65.00;32.25;;;3.60;99.90;;;;;;5085975;28;20228;-64
2020/12/13 11:51:20;;;;;;;60.22;27.60;;;3.60;99.90;;;;;;5091726;28;20203;-65
2020/12/13 11:53:47;;;;;;;55.92;28.55;;;3.80;99.90;;;;;;5084022;28;20211;-64
2020/12/13 11:56:23;;;;;;;43.58;23.83;;;4.00;99.90;;;;;;5088182;28;20504;-64
2020/12/13 11:58:52;;;;;;;48.72;26.88;;;4.10;99.90;;;;;;5087258;28;20221;-65
2020/12/13 12:01:21;;;;;;;54.17;28.98;;;4.10;99.90;;;;;;5089619;28;20512;-64
2020/12/13 12:03:47;;;;;;;60.90;26.30;;;4.10;99.90;;;;;;5085975;28;20444;-66
2020/12/13 12:06:14;;;;;;;57.25;27.83;;;4.10;99.90;;;;;;5098872;28;20216;-66
2020/12/13 12:08:54;;;;;;;46.13;26.02;;;4.00;99.90;;;;;;5093809;28;20287;-63
2020/12/13 12:11:22;;;;;;;55.22;27.55;;;3.70;99.90;;;;;;5085907;28;20204;-64
2020/12/13 12:13:49;;;;;;;57.75;28.50;;;3.90;99.90;;;;;;5085429;28;20555;-64
2020/12/13 12:16:23;;;;;;;59.97;29.70;;;4.00;99.90;;;;;;5085094;28;20217;-63
2020/12/13 12:18:50;;;;;;;62.78;30.13;;;4.10;99.90;;;;;;5086041;28;20245;-63
2020/12/13 12:21:18;;;;;;;55.53;31.25;;;4.10;99.90;;;;;;5080528;28;20202;-65
2020/12/13 12:23:44;;;;;;;51.00;27.23;;;4.10;99.90;;;;;;5080744;28;20424;-64
2020/12/13 12:26:11;;;;;;;58.08;30.55;;;4.10;99.90;;;;;;5099788;28;20243;-64
2020/12/13 12:28:37;;;;;;;51.10;28.73;;;4.20;99.90;;;;;;5098313;28;20244;-66
2020/12/13 12:31:04;;;;;;;58.78;32.42;;;4.40;99.90;;;;;;5087561;28;20216;-66
2020/12/13 12:33:31;;;;;;;50.80;25.95;;;4.50;99.90;;;;;;5084608;28;20211;-65
2020/12/13 12:36:01;;;;;;;63.83;27.58;;;4.40;99.90;;;;;;5082558;28;20230;-64
2020/12/13 12:38:27;;;;;;;53.20;27.83;;;4.40;99.90;;;;;;5081058;28;20216;-65
2020/12/13 12:40:54;;;;;;;55.67;25.00;;;4.20;99.90;;;;;;5081155;28;20260;-64
2020/12/13 12:43:21;;;;;;;53.28;29.10;;;4.40;99.90;;;;;;5081201;28;20406;-64
2020/12/13 12:45:48;;;;;;;56.53;29.27;;;4.40;99.90;;;;;;5083429;28;20215;-64
2020/12/13 12:48:16;;;;;;;53.60;30.35;;;4.40;99.90;;;;;;5082074;28;20237;-66
2020/12/13 12:50:43;;;;;;;56.60;27.50;;;4.40;99.90;;;;;;5083124;28;20209;-65
2020/12/13 12:53:09;;;;;;;48.75;27.13;;;4.30;99.90;;;;;;5086935;28;20208;-65